sensor_id;sensor_type;location;lat;lon;timestamp;temperature;humidity
39655;DHT22;25336;59.944;11.010;2023-05-07T00:00:35;5.00;43.20
39655;DHT22;25336;59.944;11.010;2023-05-07T00:03:01;5.00;43.30
39655;DHT22;25336;59.944;11.010;2023-05-07T00:05:27;5.80;43.90
39655;DHT22;25336;59.944;11.010;2023-05-07T00:07:52;5.00;43.50
39655;DHT22;25336;59.944;11.010;2023-05-07T00:10:19;4.90;43.60
39655;DHT22;25336;59.944;11.010;2023-05-07T00:12:44;6.00;44.20
39655;DHT22;25336;59.944;11.010;2023-05-07T00:15:10;4.80;43.60
39655;DHT22;25336;59.944;11.010;2023-05-07T00:17:36;4.80;43.70
39655;DHT22;25336;59.944;11.010;2023-05-07T00:20:03;4.90;43.90
39655;DHT22;25336;59.944;11.010;2023-05-07T00:22:30;4.70;44.00
39655;DHT22;25336;59.944;11.010;2023-05-07T00:24:56;4.70;44.20
39655;DHT22;25336;59.944;11.010;2023-05-07T00:27:22;4.70;44.30
39655;DHT22;25336;59.944;11.010;2023-05-07T00:29:48;5.10;44.40
39655;DHT22;25336;59.944;11.010;2023-05-07T00:32:14;4.70;44.20
39655;DHT22;25336;59.944;11.010;2023-05-07T00:34:40;4.60;44.50
39655;DHT22;25336;59.944;11.010;2023-05-07T00:37:06;4.50;44.70
39655;DHT22;25336;59.944;11.010;2023-05-07T00:39:33;4.50;45.40
39655;DHT22;25336;59.944;11.010;2023-05-07T00:41:59;4.40;44.80
39655;DHT22;25336;59.944;11.010;2023-05-07T00:44:26;4.50;44.90
39655;DHT22;25336;59.944;11.010;2023-05-07T00:46:52;4.40;45.00
39655;DHT22;25336;59.944;11.010;2023-05-07T00:49:19;4.40;45.10
39655;DHT22;25336;59.944;11.010;2023-05-07T00:51:45;5.30;45.70
39655;DHT22;25336;59.944;11.010;2023-05-07T00:54:11;4.30;45.20
39655;DHT22;25336;59.944;11.010;2023-05-07T00:56:38;4.30;45.30
39655;DHT22;25336;59.944;11.010;2023-05-07T00:59:05;4.30;45.40
39655;DHT22;25336;59.944;11.010;2023-05-07T01:01:31;4.30;45.60
39655;DHT22;25336;59.944;11.010;2023-05-07T01:03:57;4.20;45.60
39655;DHT22;25336;59.944;11.010;2023-05-07T01:06:24;4.40;45.90
39655;DHT22;25336;59.944;11.010;2023-05-07T01:08:52;5.10;46.40
39655;DHT22;25336;59.944;11.010;2023-05-07T01:11:18;4.20;46.10
39655;DHT22;25336;59.944;11.010;2023-05-07T01:13:46;4.20;46.20
39655;DHT22;25336;59.944;11.010;2023-05-07T01:16:14;4.90;46.70
39655;DHT22;25336;59.944;11.010;2023-05-07T01:18:40;4.10;46.30
39655;DHT22;25336;59.944;11.010;2023-05-07T01:21:07;4.80;46.60
39655;DHT22;25336;59.944;11.010;2023-05-07T01:23:36;4.50;46.50
39655;DHT22;25336;59.944;11.010;2023-05-07T01:26:02;4.10;46.30
39655;DHT22;25336;59.944;11.010;2023-05-07T01:28:27;4.00;46.40
39655;DHT22;25336;59.944;11.010;2023-05-07T01:31:01;4.00;46.40
39655;DHT22;25336;59.944;11.010;2023-05-07T01:33:31;3.90;46.40
39655;DHT22;25336;59.944;11.010;2023-05-07T01:35:59;3.90;46.60
39655;DHT22;25336;59.944;11.010;2023-05-07T01:38:30;3.90;46.70
39655;DHT22;25336;59.944;11.010;2023-05-07T01:40:56;4.30;46.90
39655;DHT22;25336;59.944;11.010;2023-05-07T01:43:22;3.80;46.80
39655;DHT22;25336;59.944;11.010;2023-05-07T01:45:49;4.70;47.40
39655;DHT22;25336;59.944;11.010;2023-05-07T01:48:15;3.70;47.00
39655;DHT22;25336;59.944;11.010;2023-05-07T01:50:42;3.70;47.20
39655;DHT22;25336;59.944;11.010;2023-05-07T01:53:08;3.60;47.30
39655;DHT22;25336;59.944;11.010;2023-05-07T01:55:34;3.60;47.50
39655;DHT22;25336;59.944;11.010;2023-05-07T01:58:00;3.60;47.70
39655;DHT22;25336;59.944;11.010;2023-05-07T02:00:25;3.50;47.80
39655;DHT22;25336;59.944;11.010;2023-05-07T02:02:51;3.50;47.90
39655;DHT22;25336;59.944;11.010;2023-05-07T02:05:18;3.40;47.80
39655;DHT22;25336;59.944;11.010;2023-05-07T02:07:43;3.40;47.90
39655;DHT22;25336;59.944;11.010;2023-05-07T02:10:09;3.40;48.00
39655;DHT22;25336;59.944;11.010;2023-05-07T02:12:35;3.40;48.60
39655;DHT22;25336;59.944;11.010;2023-05-07T02:15:00;3.30;48.20
39655;DHT22;25336;59.944;11.010;2023-05-07T02:17:26;3.30;48.30
39655;DHT22;25336;59.944;11.010;2023-05-07T02:19:51;3.30;48.30
39655;DHT22;25336;59.944;11.010;2023-05-07T02:22:17;3.20;48.50
39655;DHT22;25336;59.944;11.010;2023-05-07T02:24:43;3.90;48.90
39655;DHT22;25336;59.944;11.010;2023-05-07T02:27:09;3.20;48.70
39655;DHT22;25336;59.944;11.010;2023-05-07T02:29:35;3.20;48.80
39655;DHT22;25336;59.944;11.010;2023-05-07T02:32:01;3.10;48.80
39655;DHT22;25336;59.944;11.010;2023-05-07T02:34:26;3.80;49.10
39655;DHT22;25336;59.944;11.010;2023-05-07T02:36:52;3.10;48.80
39655;DHT22;25336;59.944;11.010;2023-05-07T02:39:17;3.10;48.90
39655;DHT22;25336;59.944;11.010;2023-05-07T02:41:43;3.00;48.80
39655;DHT22;25336;59.944;11.010;2023-05-07T02:44:10;3.00;48.90
39655;DHT22;25336;59.944;11.010;2023-05-07T02:46:35;3.00;49.20
39655;DHT22;25336;59.944;11.010;2023-05-07T02:49:01;3.00;49.40
39655;DHT22;25336;59.944;11.010;2023-05-07T02:51:26;2.90;49.40
39655;DHT22;25336;59.944;11.010;2023-05-07T02:53:52;2.90;49.30
39655;DHT22;25336;59.944;11.010;2023-05-07T02:56:18;2.90;49.40
39655;DHT22;25336;59.944;11.010;2023-05-07T02:58:43;2.90;49.50
39655;DHT22;25336;59.944;11.010;2023-05-07T03:01:09;2.80;49.90
39655;DHT22;25336;59.944;11.010;2023-05-07T03:03:35;3.90;50.40
39655;DHT22;25336;59.944;11.010;2023-05-07T03:06:01;2.80;50.00
39655;DHT22;25336;59.944;11.010;2023-05-07T03:08:26;2.80;50.20
39655;DHT22;25336;59.944;11.010;2023-05-07T03:10:52;2.80;50.20
39655;DHT22;25336;59.944;11.010;2023-05-07T03:13:18;3.00;50.40
39655;DHT22;25336;59.944;11.010;2023-05-07T03:15:43;2.70;50.50
39655;DHT22;25336;59.944;11.010;2023-05-07T03:18:09;2.70;50.50
39655;DHT22;25336;59.944;11.010;2023-05-07T03:20:35;2.70;50.50
39655;DHT22;25336;59.944;11.010;2023-05-07T03:23:02;2.70;50.50
39655;DHT22;25336;59.944;11.010;2023-05-07T03:25:28;2.70;50.60
39655;DHT22;25336;59.944;11.010;2023-05-07T03:27:55;2.70;50.60
39655;DHT22;25336;59.944;11.010;2023-05-07T03:30:21;2.70;51.10
39655;DHT22;25336;59.944;11.010;2023-05-07T03:32:47;2.70;50.90
39655;DHT22;25336;59.944;11.010;2023-05-07T03:35:12;2.70;50.70
39655;DHT22;25336;59.944;11.010;2023-05-07T03:37:38;2.70;50.90
39655;DHT22;25336;59.944;11.010;2023-05-07T03:40:05;3.60;51.40
39655;DHT22;25336;59.944;11.010;2023-05-07T03:42:31;2.70;50.90
39655;DHT22;25336;59.944;11.010;2023-05-07T03:44:56;3.50;51.40
39655;DHT22;25336;59.944;11.010;2023-05-07T03:47:22;2.80;51.40
39655;DHT22;25336;59.944;11.010;2023-05-07T03:49:47;2.70;51.10
39655;DHT22;25336;59.944;11.010;2023-05-07T03:52:14;2.80;51.20
39655;DHT22;25336;59.944;11.010;2023-05-07T03:54:40;2.80;51.20
39655;DHT22;25336;59.944;11.010;2023-05-07T03:57:05;3.80;51.80
39655;DHT22;25336;59.944;11.010;2023-05-07T03:59:31;3.50;51.70
39655;DHT22;25336;59.944;11.010;2023-05-07T04:01:57;2.90;51.50
39655;DHT22;25336;59.944;11.010;2023-05-07T04:04:23;2.90;51.60
39655;DHT22;25336;59.944;11.010;2023-05-07T04:06:48;2.90;51.50
39655;DHT22;25336;59.944;11.010;2023-05-07T04:09:14;2.90;51.50
39655;DHT22;25336;59.944;11.010;2023-05-07T04:11:40;2.90;51.50
39655;DHT22;25336;59.944;11.010;2023-05-07T04:14:06;3.00;51.50
39655;DHT22;25336;59.944;11.010;2023-05-07T04:16:31;3.00;51.50
39655;DHT22;25336;59.944;11.010;2023-05-07T04:18:57;3.00;51.40
39655;DHT22;25336;59.944;11.010;2023-05-07T04:21:23;3.60;51.60
39655;DHT22;25336;59.944;11.010;2023-05-07T04:23:49;3.10;51.80
39655;DHT22;25336;59.944;11.010;2023-05-07T04:26:15;3.20;51.70
39655;DHT22;25336;59.944;11.010;2023-05-07T04:28:41;3.20;51.90
39655;DHT22;25336;59.944;11.010;2023-05-07T04:31:07;3.20;51.80
39655;DHT22;25336;59.944;11.010;2023-05-07T04:33:33;3.20;51.60
39655;DHT22;25336;59.944;11.010;2023-05-07T04:36:01;3.30;51.50
39655;DHT22;25336;59.944;11.010;2023-05-07T04:38:31;3.30;51.50
39655;DHT22;25336;59.944;11.010;2023-05-07T04:41:02;3.40;51.30
39655;DHT22;25336;59.944;11.010;2023-05-07T04:43:28;3.40;51.20
39655;DHT22;25336;59.944;11.010;2023-05-07T04:45:53;3.40;51.20
39655;DHT22;25336;59.944;11.010;2023-05-07T04:48:19;3.40;51.50
39655;DHT22;25336;59.944;11.010;2023-05-07T04:50:51;3.40;51.30
39655;DHT22;25336;59.944;11.010;2023-05-07T04:53:18;3.50;51.70
39655;DHT22;25336;59.944;11.010;2023-05-07T04:55:44;3.50;51.70
39655;DHT22;25336;59.944;11.010;2023-05-07T04:58:11;4.40;52.30
39655;DHT22;25336;59.944;11.010;2023-05-07T05:00:37;3.60;51.70
39655;DHT22;25336;59.944;11.010;2023-05-07T05:03:04;3.40;51.40
39655;DHT22;25336;59.944;11.010;2023-05-07T05:05:30;3.90;51.80
39655;DHT22;25336;59.944;11.010;2023-05-07T05:07:56;3.80;51.90
39655;DHT22;25336;59.944;11.010;2023-05-07T05:10:22;3.80;51.80
39655;DHT22;25336;59.944;11.010;2023-05-07T05:12:47;3.90;51.90
39655;DHT22;25336;59.944;11.010;2023-05-07T05:15:13;3.90;51.60
39655;DHT22;25336;59.944;11.010;2023-05-07T05:17:39;4.00;51.60
39655;DHT22;25336;59.944;11.010;2023-05-07T05:20:05;4.10;51.60
39655;DHT22;25336;59.944;11.010;2023-05-07T05:22:32;4.10;51.20
39655;DHT22;25336;59.944;11.010;2023-05-07T05:24:57;4.90;52.00
39655;DHT22;25336;59.944;11.010;2023-05-07T05:27:23;4.30;51.50
39655;DHT22;25336;59.944;11.010;2023-05-07T05:29:49;5.20;51.60
39655;DHT22;25336;59.944;11.010;2023-05-07T05:32:15;5.20;51.70
39655;DHT22;25336;59.944;11.010;2023-05-07T05:34:41;4.50;51.20
39655;DHT22;25336;59.944;11.010;2023-05-07T05:37:06;4.50;51.50
39655;DHT22;25336;59.944;11.010;2023-05-07T05:39:32;4.60;51.30
39655;DHT22;25336;59.944;11.010;2023-05-07T05:41:58;4.70;51.20
39655;DHT22;25336;59.944;11.010;2023-05-07T05:44:23;4.80;51.50
39655;DHT22;25336;59.944;11.010;2023-05-07T05:46:49;6.10;51.90
39655;DHT22;25336;59.944;11.010;2023-05-07T05:49:15;4.90;51.30
39655;DHT22;25336;59.944;11.010;2023-05-07T05:51:41;5.00;51.20
39655;DHT22;25336;59.944;11.010;2023-05-07T05:54:06;5.00;51.00
39655;DHT22;25336;59.944;11.010;2023-05-07T05:56:32;5.10;50.90
39655;DHT22;25336;59.944;11.010;2023-05-07T05:58:58;5.20;50.90
39655;DHT22;25336;59.944;11.010;2023-05-07T06:01:24;5.30;51.00
39655;DHT22;25336;59.944;11.010;2023-05-07T06:03:49;5.40;51.10
39655;DHT22;25336;59.944;11.010;2023-05-07T06:06:15;5.50;50.90
39655;DHT22;25336;59.944;11.010;2023-05-07T06:08:41;5.60;50.90
39655;DHT22;25336;59.944;11.010;2023-05-07T06:11:07;5.70;50.90
39655;DHT22;25336;59.944;11.010;2023-05-07T06:13:32;5.80;51.50
39655;DHT22;25336;59.944;11.010;2023-05-07T06:15:58;5.90;50.70
39655;DHT22;25336;59.944;11.010;2023-05-07T06:18:24;6.90;50.90
39655;DHT22;25336;59.944;11.010;2023-05-07T06:20:51;6.00;50.50
39655;DHT22;25336;59.944;11.010;2023-05-07T06:23:17;6.20;50.30
39655;DHT22;25336;59.944;11.010;2023-05-07T06:25:48;6.20;50.10
39655;DHT22;25336;59.944;11.010;2023-05-07T06:28:13;6.30;50.10
39655;DHT22;25336;59.944;11.010;2023-05-07T06:30:39;7.20;50.40
39655;DHT22;25336;59.944;11.010;2023-05-07T06:33:05;6.50;50.00
39655;DHT22;25336;59.944;11.010;2023-05-07T06:35:31;6.60;49.90
39655;DHT22;25336;59.944;11.010;2023-05-07T06:37:57;6.70;49.60
39655;DHT22;25336;59.944;11.010;2023-05-07T06:40:23;6.80;49.50
39655;DHT22;25336;59.944;11.010;2023-05-07T06:42:49;6.90;49.50
39655;DHT22;25336;59.944;11.010;2023-05-07T06:45:14;7.00;49.30
39655;DHT22;25336;59.944;11.010;2023-05-07T06:47:40;7.10;49.10
39655;DHT22;25336;59.944;11.010;2023-05-07T06:50:06;7.20;49.00
39655;DHT22;25336;59.944;11.010;2023-05-07T06:52:32;7.30;48.90
39655;DHT22;25336;59.944;11.010;2023-05-07T06:54:57;7.40;48.80
39655;DHT22;25336;59.944;11.010;2023-05-07T06:57:24;7.50;49.30
39655;DHT22;25336;59.944;11.010;2023-05-07T06:59:49;7.60;48.60
39655;DHT22;25336;59.944;11.010;2023-05-07T07:02:15;7.70;48.40
39655;DHT22;25336;59.944;11.010;2023-05-07T07:04:41;7.80;48.30
39655;DHT22;25336;59.944;11.010;2023-05-07T07:07:07;7.90;48.20
39655;DHT22;25336;59.944;11.010;2023-05-07T07:09:33;8.00;48.10
39655;DHT22;25336;59.944;11.010;2023-05-07T07:11:58;8.10;47.90
39655;DHT22;25336;59.944;11.010;2023-05-07T07:14:24;8.30;47.90
39655;DHT22;25336;59.944;11.010;2023-05-07T07:16:50;8.30;47.70
39655;DHT22;25336;59.944;11.010;2023-05-07T07:19:16;8.40;47.60
39655;DHT22;25336;59.944;11.010;2023-05-07T07:21:42;9.30;48.00
39655;DHT22;25336;59.944;11.010;2023-05-07T07:24:07;8.70;47.50
39655;DHT22;25336;59.944;11.010;2023-05-07T07:26:33;9.70;47.80
39655;DHT22;25336;59.944;11.010;2023-05-07T07:28:59;9.40;47.50
39655;DHT22;25336;59.944;11.010;2023-05-07T07:31:24;9.00;47.30
39655;DHT22;25336;59.944;11.010;2023-05-07T07:33:50;9.20;47.10
39655;DHT22;25336;59.944;11.010;2023-05-07T07:36:15;9.70;47.10
39655;DHT22;25336;59.944;11.010;2023-05-07T07:38:41;9.40;46.70
39655;DHT22;25336;59.944;11.010;2023-05-07T07:41:08;9.50;46.70
39655;DHT22;25336;59.944;11.010;2023-05-07T07:43:34;9.70;46.60
39655;DHT22;25336;59.944;11.010;2023-05-07T07:46:01;10.10;46.60
39655;DHT22;25336;59.944;11.010;2023-05-07T07:48:26;9.90;46.30
39655;DHT22;25336;59.944;11.010;2023-05-07T07:50:52;10.00;46.20
39655;DHT22;25336;59.944;11.010;2023-05-07T07:53:19;10.80;46.40
39655;DHT22;25336;59.944;11.010;2023-05-07T07:55:45;10.20;45.90
39655;DHT22;25336;59.944;11.010;2023-05-07T07:58:12;10.30;45.70
39655;DHT22;25336;59.944;11.010;2023-05-07T08:00:37;10.50;45.60
39655;DHT22;25336;59.944;11.010;2023-05-07T08:03:03;10.60;45.50
39655;DHT22;25336;59.944;11.010;2023-05-07T08:05:29;10.70;45.30
39655;DHT22;25336;59.944;11.010;2023-05-07T08:07:55;10.80;45.20
39655;DHT22;25336;59.944;11.010;2023-05-07T08:10:21;10.90;45.20
39655;DHT22;25336;59.944;11.010;2023-05-07T08:12:50;11.00;45.00
39655;DHT22;25336;59.944;11.010;2023-05-07T08:15:16;11.10;44.80
39655;DHT22;25336;59.944;11.010;2023-05-07T08:17:42;11.20;44.70
39655;DHT22;25336;59.944;11.010;2023-05-07T08:20:08;11.30;44.60
39655;DHT22;25336;59.944;11.010;2023-05-07T08:22:35;11.40;44.40
39655;DHT22;25336;59.944;11.010;2023-05-07T08:25:01;12.20;44.70
39655;DHT22;25336;59.944;11.010;2023-05-07T08:27:26;11.10;43.80
39655;DHT22;25336;59.944;11.010;2023-05-07T08:29:52;11.70;44.00
39655;DHT22;25336;59.944;11.010;2023-05-07T08:32:18;11.80;43.80
39655;DHT22;25336;59.944;11.010;2023-05-07T08:34:44;12.00;43.80
39655;DHT22;25336;59.944;11.010;2023-05-07T08:37:10;12.80;44.00
39655;DHT22;25336;59.944;11.010;2023-05-07T08:39:35;12.20;43.50
39655;DHT22;25336;59.944;11.010;2023-05-07T08:42:01;12.30;43.30
39655;DHT22;25336;59.944;11.010;2023-05-07T08:44:33;12.40;43.10
39655;DHT22;25336;59.944;11.010;2023-05-07T08:47:01;12.50;42.80
39655;DHT22;25336;59.944;11.010;2023-05-07T08:49:27;12.60;42.80
39655;DHT22;25336;59.944;11.010;2023-05-07T08:51:53;12.60;42.50
39655;DHT22;25336;59.944;11.010;2023-05-07T08:54:19;12.80;42.40
39655;DHT22;25336;59.944;11.010;2023-05-07T08:56:45;12.80;41.70
39655;DHT22;25336;59.944;11.010;2023-05-07T08:59:11;13.00;41.80
39655;DHT22;25336;59.944;11.010;2023-05-07T09:01:37;13.10;41.30
39655;DHT22;25336;59.944;11.010;2023-05-07T09:04:04;13.10;40.70
39655;DHT22;25336;59.944;11.010;2023-05-07T09:06:30;13.90;40.80
39655;DHT22;25336;59.944;11.010;2023-05-07T09:08:56;13.30;40.30
39655;DHT22;25336;59.944;11.010;2023-05-07T09:11:23;13.40;40.20
39655;DHT22;25336;59.944;11.010;2023-05-07T09:13:57;13.50;39.90
39655;DHT22;25336;59.944;11.010;2023-05-07T09:16:24;13.50;39.10
39655;DHT22;25336;59.944;11.010;2023-05-07T09:18:54;13.60;39.10
39655;DHT22;25336;59.944;11.010;2023-05-07T09:21:21;13.70;38.20
39655;DHT22;25336;59.944;11.010;2023-05-07T09:23:52;13.80;38.70
39655;DHT22;25336;59.944;11.010;2023-05-07T09:26:21;13.90;38.20
39655;DHT22;25336;59.944;11.010;2023-05-07T09:28:46;13.90;38.00
39655;DHT22;25336;59.944;11.010;2023-05-07T09:31:12;14.00;38.30
39655;DHT22;25336;59.944;11.010;2023-05-07T09:33:38;14.00;37.80
39655;DHT22;25336;59.944;11.010;2023-05-07T09:36:05;14.10;38.00
39655;DHT22;25336;59.944;11.010;2023-05-07T09:38:34;14.20;37.70
39655;DHT22;25336;59.944;11.010;2023-05-07T09:41:08;14.20;37.20
39655;DHT22;25336;59.944;11.010;2023-05-07T09:43:36;14.30;36.90
39655;DHT22;25336;59.944;11.010;2023-05-07T09:46:27;14.40;36.30
39655;DHT22;25336;59.944;11.010;2023-05-07T09:48:57;14.50;35.20
39655;DHT22;25336;59.944;11.010;2023-05-07T09:51:39;14.60;35.50
39655;DHT22;25336;59.944;11.010;2023-05-07T09:54:06;14.60;35.10
39655;DHT22;25336;59.944;11.010;2023-05-07T09:56:33;14.70;34.80
39655;DHT22;25336;59.944;11.010;2023-05-07T09:59:03;14.80;35.00
39655;DHT22;25336;59.944;11.010;2023-05-07T10:01:30;14.80;35.00
39655;DHT22;25336;59.944;11.010;2023-05-07T10:03:57;14.90;35.30
39655;DHT22;25336;59.944;11.010;2023-05-07T10:06:25;15.60;35.40
39655;DHT22;25336;59.944;11.010;2023-05-07T10:08:54;15.10;35.30
39655;DHT22;25336;59.944;11.010;2023-05-07T10:11:22;15.20;34.90
39655;DHT22;25336;59.944;11.010;2023-05-07T10:13:48;16.30;35.60
39655;DHT22;25336;59.944;11.010;2023-05-07T10:16:14;15.40;35.20
39655;DHT22;25336;59.944;11.010;2023-05-07T10:18:43;15.40;34.90
39655;DHT22;25336;59.944;11.010;2023-05-07T10:21:17;16.40;34.70
39655;DHT22;25336;59.944;11.010;2023-05-07T10:23:45;15.60;34.00
39655;DHT22;25336;59.944;11.010;2023-05-07T10:26:14;15.70;33.70
39655;DHT22;25336;59.944;11.010;2023-05-07T10:28:43;15.80;33.20
39655;DHT22;25336;59.944;11.010;2023-05-07T10:34:16;15.90;32.60
39655;DHT22;25336;59.944;11.010;2023-05-07T10:36:44;15.90;32.70
39655;DHT22;25336;59.944;11.010;2023-05-07T10:39:10;15.90;32.10
39655;DHT22;25336;59.944;11.010;2023-05-07T10:41:36;15.90;32.00
39655;DHT22;25336;59.944;11.010;2023-05-07T10:44:02;16.00;32.20
39655;DHT22;25336;59.944;11.010;2023-05-07T10:46:28;15.10;31.60
39655;DHT22;25336;59.944;11.010;2023-05-07T10:51:26;16.00;31.90
39655;DHT22;25336;59.944;11.010;2023-05-07T10:56:42;16.10;31.90
39655;DHT22;25336;59.944;11.010;2023-05-07T11:04:16;16.30;31.30
39655;DHT22;25336;59.944;11.010;2023-05-07T11:15:10;16.50;31.00
39655;DHT22;25336;59.944;11.010;2023-05-07T11:17:55;16.60;31.60
39655;DHT22;25336;59.944;11.010;2023-05-07T11:20:21;16.60;31.20
39655;DHT22;25336;59.944;11.010;2023-05-07T11:23:06;16.70;31.50
39655;DHT22;25336;59.944;11.010;2023-05-07T11:25:32;16.80;31.70
39655;DHT22;25336;59.944;11.010;2023-05-07T11:28:05;17.70;31.40
39655;DHT22;25336;59.944;11.010;2023-05-07T11:30:31;16.90;30.50
39655;DHT22;25336;59.944;11.010;2023-05-07T11:32:57;16.90;30.50
39655;DHT22;25336;59.944;11.010;2023-05-07T11:35:23;16.90;30.40
39655;DHT22;25336;59.944;11.010;2023-05-07T11:37:57;17.00;29.80
39655;DHT22;25336;59.944;11.010;2023-05-07T11:40:23;17.00;29.50
39655;DHT22;25336;59.944;11.010;2023-05-07T11:42:48;16.90;30.10
39655;DHT22;25336;59.944;11.010;2023-05-07T11:45:23;17.00;29.80
39655;DHT22;25336;59.944;11.010;2023-05-07T11:47:52;17.00;29.60
39655;DHT22;25336;59.944;11.010;2023-05-07T11:50:18;17.00;30.00
39655;DHT22;25336;59.944;11.010;2023-05-07T11:52:50;17.80;29.90
39655;DHT22;25336;59.944;11.010;2023-05-07T11:55:18;17.10;29.50
39655;DHT22;25336;59.944;11.010;2023-05-07T11:57:44;17.10;29.90
39655;DHT22;25336;59.944;11.010;2023-05-07T12:00:11;17.20;30.00
39655;DHT22;25336;59.944;11.010;2023-05-07T12:02:37;17.20;29.80
39655;DHT22;25336;59.944;11.010;2023-05-07T12:05:02;17.20;29.40
39655;DHT22;25336;59.944;11.010;2023-05-07T12:07:28;17.30;29.60
39655;DHT22;25336;59.944;11.010;2023-05-07T12:09:54;17.30;29.30
39655;DHT22;25336;59.944;11.010;2023-05-07T12:12:19;17.70;29.30
39655;DHT22;25336;59.944;11.010;2023-05-07T12:14:46;17.30;29.50
39655;DHT22;25336;59.944;11.010;2023-05-07T12:17:13;17.40;29.60
39655;DHT22;25336;59.944;11.010;2023-05-07T12:19:41;17.40;29.40
39655;DHT22;25336;59.944;11.010;2023-05-07T12:22:08;17.50;29.60
39655;DHT22;25336;59.944;11.010;2023-05-07T12:27:09;18.60;29.70
39655;DHT22;25336;59.944;11.010;2023-05-07T12:29:35;17.70;29.20
39655;DHT22;25336;59.944;11.010;2023-05-07T12:32:00;17.70;29.20
39655;DHT22;25336;59.944;11.010;2023-05-07T12:34:26;17.70;29.20
39655;DHT22;25336;59.944;11.010;2023-05-07T12:36:52;17.80;29.10
39655;DHT22;25336;59.944;11.010;2023-05-07T12:39:18;17.80;29.30
39655;DHT22;25336;59.944;11.010;2023-05-07T12:41:57;17.90;28.80
39655;DHT22;25336;59.944;11.010;2023-05-07T12:44:31;18.50;29.00
39655;DHT22;25336;59.944;11.010;2023-05-07T12:46:57;18.00;29.40
39655;DHT22;25336;59.944;11.010;2023-05-07T12:49:23;18.10;28.90
39655;DHT22;25336;59.944;11.010;2023-05-07T12:51:50;18.20;28.90
39655;DHT22;25336;59.944;11.010;2023-05-07T12:54:35;18.30;28.70
39655;DHT22;25336;59.944;11.010;2023-05-07T12:57:06;18.30;28.60
39655;DHT22;25336;59.944;11.010;2023-05-07T12:59:33;18.40;28.30
39655;DHT22;25336;59.944;11.010;2023-05-07T13:01:59;18.50;28.40
39655;DHT22;25336;59.944;11.010;2023-05-07T13:04:25;18.50;28.60
39655;DHT22;25336;59.944;11.010;2023-05-07T13:06:50;18.60;28.50
39655;DHT22;25336;59.944;11.010;2023-05-07T13:09:16;18.60;28.10
39655;DHT22;25336;59.944;11.010;2023-05-07T13:11:41;18.70;28.00
39655;DHT22;25336;59.944;11.010;2023-05-07T13:14:07;18.60;27.80
39655;DHT22;25336;59.944;11.010;2023-05-07T13:16:33;18.60;27.90
39655;DHT22;25336;59.944;11.010;2023-05-07T13:18:59;18.60;27.60
39655;DHT22;25336;59.944;11.010;2023-05-07T13:21:24;18.60;27.50
39655;DHT22;25336;59.944;11.010;2023-05-07T13:23:50;18.50;27.80
39655;DHT22;25336;59.944;11.010;2023-05-07T13:26:16;18.50;27.80
39655;DHT22;25336;59.944;11.010;2023-05-07T13:28:42;18.50;27.80
39655;DHT22;25336;59.944;11.010;2023-05-07T13:31:09;18.50;27.50
39655;DHT22;25336;59.944;11.010;2023-05-07T13:33:34;18.40;27.90
39655;DHT22;25336;59.944;11.010;2023-05-07T13:36:01;18.40;27.90
39655;DHT22;25336;59.944;11.010;2023-05-07T13:38:27;18.40;28.20
39655;DHT22;25336;59.944;11.010;2023-05-07T13:40:53;18.40;28.50
39655;DHT22;25336;59.944;11.010;2023-05-07T13:43:19;18.40;28.70
39655;DHT22;25336;59.944;11.010;2023-05-07T13:45:45;18.40;28.50
39655;DHT22;25336;59.944;11.010;2023-05-07T13:48:10;18.40;28.60
39655;DHT22;25336;59.944;11.010;2023-05-07T13:50:36;18.40;29.30
39655;DHT22;25336;59.944;11.010;2023-05-07T13:53:01;18.40;30.20
39655;DHT22;25336;59.944;11.010;2023-05-07T13:55:28;18.40;29.80
39655;DHT22;25336;59.944;11.010;2023-05-07T13:57:58;18.60;30.00
39655;DHT22;25336;59.944;11.010;2023-05-07T14:00:25;18.60;30.10
39655;DHT22;25336;59.944;11.010;2023-05-07T14:02:52;18.20;29.90
39655;DHT22;25336;59.944;11.010;2023-05-07T14:05:17;18.70;30.00
39655;DHT22;25336;59.944;11.010;2023-05-07T14:07:43;18.80;29.90
39655;DHT22;25336;59.944;11.010;2023-05-07T14:10:09;18.90;29.90
39655;DHT22;25336;59.944;11.010;2023-05-07T14:12:36;18.90;29.50
39655;DHT22;25336;59.944;11.010;2023-05-07T14:15:02;18.90;29.80
39655;DHT22;25336;59.944;11.010;2023-05-07T14:17:28;18.90;29.80
39655;DHT22;25336;59.944;11.010;2023-05-07T14:19:54;18.90;29.90
39655;DHT22;25336;59.944;11.010;2023-05-07T14:22:23;19.30;30.40
39655;DHT22;25336;59.944;11.010;2023-05-07T14:24:50;18.90;29.90
39655;DHT22;25336;59.944;11.010;2023-05-07T14:27:16;18.90;29.80
39655;DHT22;25336;59.944;11.010;2023-05-07T14:29:41;18.90;29.50
39655;DHT22;25336;59.944;11.010;2023-05-07T14:32:08;19.90;29.90
39655;DHT22;25336;59.944;11.010;2023-05-07T14:34:33;18.90;29.50
39655;DHT22;25336;59.944;11.010;2023-05-07T14:37:00;18.90;29.40
39655;DHT22;25336;59.944;11.010;2023-05-07T14:39:25;19.10;29.70
39655;DHT22;25336;59.944;11.010;2023-05-07T14:41:51;18.80;29.60
39655;DHT22;25336;59.944;11.010;2023-05-07T14:44:20;18.80;29.50
39655;DHT22;25336;59.944;11.010;2023-05-07T14:46:45;19.40;29.90
39655;DHT22;25336;59.944;11.010;2023-05-07T14:49:11;18.70;29.40
39655;DHT22;25336;59.944;11.010;2023-05-07T14:51:43;18.80;29.60
39655;DHT22;25336;59.944;11.010;2023-05-07T14:54:08;18.70;29.20
39655;DHT22;25336;59.944;11.010;2023-05-07T14:56:35;18.70;29.30
39655;DHT22;25336;59.944;11.010;2023-05-07T14:59:02;18.60;29.30
39655;DHT22;25336;59.944;11.010;2023-05-07T15:01:28;18.60;29.20
39655;DHT22;25336;59.944;11.010;2023-05-07T15:03:54;18.60;29.40
39655;DHT22;25336;59.944;11.010;2023-05-07T15:06:20;19.20;29.90
39655;DHT22;25336;59.944;11.010;2023-05-07T15:08:46;18.60;29.50
39655;DHT22;25336;59.944;11.010;2023-05-07T15:11:12;18.60;29.40
39655;DHT22;25336;59.944;11.010;2023-05-07T15:13:37;18.60;29.00
39655;DHT22;25336;59.944;11.010;2023-05-07T15:16:03;18.60;28.90
39655;DHT22;25336;59.944;11.010;2023-05-07T15:18:28;18.60;29.10
39655;DHT22;25336;59.944;11.010;2023-05-07T15:20:55;18.90;29.10
39655;DHT22;25336;59.944;11.010;2023-05-07T15:23:21;18.50;29.10
39655;DHT22;25336;59.944;11.010;2023-05-07T15:25:46;18.60;29.10
39655;DHT22;25336;59.944;11.010;2023-05-07T15:28:12;18.60;29.10
39655;DHT22;25336;59.944;11.010;2023-05-07T15:30:37;18.70;29.00
39655;DHT22;25336;59.944;11.010;2023-05-07T15:33:03;18.60;29.00
39655;DHT22;25336;59.944;11.010;2023-05-07T15:35:29;18.70;28.70
39655;DHT22;25336;59.944;11.010;2023-05-07T15:37:54;18.70;28.80
39655;DHT22;25336;59.944;11.010;2023-05-07T15:40:21;18.80;28.80
39655;DHT22;25336;59.944;11.010;2023-05-07T15:42:46;18.80;28.50